1891 Depression NOT_NAMED (1891205N22088)


IBTrACS version v04r00. Visit IBTrACS website for data access.
Please direct all questions to the IBTrACS Q and A forum

Storm track - Intensity - Wind Radii - Intensity Data - Source Data - All data

Summary Information

Storm ID 1891205N22088
Start Jul 24 00Z
Landfall Jul 24 03Z
Max Intensity 30 kt (Jul 24 03Z)
End Jul 30 03Z
ATCF IDs
Track status Best track data.

Storm track plot

Map of storm track

Intensity plots

Map of storm track

Radial wind information

No radial wind information for this storm


Position and Intensity Table

BASIN ISO_TIME_________ NATURE LAT LON DS824 WIND
degrees north degrees east kts
NI 1891-07-24 00:00:00 TS 21.90 88.10 30
NI 03:00:00 TS 21.97 88.00 30
NI 06:00:00 TS 22.05 87.87 30
NI 09:00:00 TS 22.11 87.73 30
NI 12:00:00 TS 22.17 87.59 30
NI 15:00:00 TS 22.22 87.41 30
NI 18:00:00 TS 22.28 87.20 30
NI 21:00:00 TS 22.34 86.97 30
NI 1891-07-25 00:00:00 TS 22.38 86.72 30
NI 03:00:00 TS 22.40 86.47 30
NI 06:00:00 TS 22.42 86.23 30
NI 09:00:00 TS 22.45 85.99 30
NI 12:00:00 TS 22.49 85.79 30
NI 15:00:00 TS 22.50 85.64 30
NI 18:00:00 TS 22.50 85.57 30
NI 21:00:00 TS 22.52 85.53 30
NI 1891-07-26 00:00:00 TS 22.57 85.40 30
NI 03:00:00 TS 22.67 85.06 30
NI 06:00:00 TS 22.81 84.53 30
NI 09:00:00 TS 22.96 83.98 30
NI 12:00:00 TS 23.12 83.40 30
NI 15:00:00 TS 23.25 82.84 30
NI 18:00:00 TS 23.37 82.35 30
NI 21:00:00 TS 23.50 81.87 30
NI 1891-07-27 00:00:00 TS 23.64 81.42 30
NI 03:00:00 TS 23.75 81.00 30
NI 06:00:00 TS 23.86 80.59 30
NI 09:00:00 TS 24.00 80.18 30
NI 12:00:00 TS 24.14 79.79 30
NI 15:00:00 TS 24.25 79.42 30
NI 18:00:00 TS 24.36 79.08 30
NI 21:00:00 TS 24.48 78.72 30
NI 1891-07-28 00:00:00 TS 24.63 78.32 30
NI 03:00:00 TS 24.80 77.82 30
NI 06:00:00 TS 24.99 77.23 30
NI 09:00:00 TS 25.19 76.63 30
NI 12:00:00 TS 25.39 76.02 30
NI 15:00:00 TS 25.60 75.40 30
NI 18:00:00 TS 25.80 74.79 30
NI 21:00:00 TS 26.01 74.17 30
NI 1891-07-29 00:00:00 TS 26.20 73.58 30
NI 03:00:00 TS 26.37 73.06 30
NI 06:00:00 TS 26.54 72.60 30
NI 09:00:00 TS 26.72 72.15 30
NI 12:00:00 TS 26.91 71.71 30
NI 15:00:00 TS 27.10 71.27 30
NI 18:00:00 TS 27.28 70.87 30
NI 21:00:00 TS 27.47 70.47 30
NI 1891-07-30 00:00:00 TS 27.66 70.09 30
NI 03:00:00 NR 27.80 69.80

Source Information

Agency Information
USA
TOKYO
CMA
HKO
NEWDELHI
REUNION
BOM
NADI
WELLINGTON
DS824 n_ind.dat:157:NOT NAMED
TD9636 cons_worldwide_trop_cyclone_18710101-19891231-004:Line=1573
TD9635
NEUMANN
MLC

All available IBTrACS Data

SEASON BASIN SUBBASIN ISO_TIME_________ NATURE LAT LON DIST2LAND LANDFALL IFLAG USA SSHS DS824 LAT DS824 LON DS824 STAGE DS824 WIND TD9636 LAT TD9636 LON TD9636 STAGE STORM SPEED STORM DIR
Year degrees north degrees east km km 1 degrees north degrees east kts degrees north degrees east kts degrees
1891 NI BB 1891-07-24 00:00:00 TS 21.90 88.10 10 0 _________O____ -1 21.90 88.10 TC 30 2 308
1891 NI BB 03:00:00 TS 21.97 88.00 0 0 _________PO___ -1 22.01 87.95 TC 30 21.90 88.10 1 3 305
1891 NI BB 06:00:00 TS 22.05 87.87 0 0 _________OP___ -1 22.10 87.80 TC 30 21.98 87.97 1 3 300
1891 NI BB 09:00:00 TS 22.11 87.73 0 0 _________PP___ -1 22.16 87.66 TC 30 22.06 87.83 1 3 294
1891 NI BB 12:00:00 TS 22.17 87.59 0 0 _________OP___ -1 22.20 87.50 TC 30 22.13 87.68 1 3 290
1891 NI BB 15:00:00 TS 22.22 87.41 0 0 _________PO___ -1 22.25 87.31 TC 30 22.20 87.50 1 4 288
1891 NI BB 18:00:00 TS 22.28 87.20 0 0 _________OP___ -1 22.30 87.10 TC 30 22.26 87.30 1 4 285
1891 NI BB 21:00:00 TS 22.34 86.97 0 0 _________PP___ -1 22.36 86.86 TC 30 22.32 87.07 1 5 283
1891 NI BB 1891-07-25 00:00:00 TS 22.38 86.72 0 0 _________OP___ -1 22.40 86.60 TC 30 22.36 86.84 1 5 278
1891 NI BB 03:00:00 TS 22.40 86.47 0 0 _________PO___ -1 22.40 86.34 TC 30 22.40 86.60 1 5 274
1891 NI BB 06:00:00 TS 22.42 86.23 0 0 _________OP___ -1 22.40 86.10 TC 30 22.43 86.35 1 4 277
1891 NI BB 09:00:00 TS 22.45 85.99 0 0 _________PP___ -1 22.45 85.88 TC 30 22.46 86.11 1 4 280
1891 NI BB 12:00:00 TS 22.49 85.79 0 0 _________OP___ -1 22.50 85.70 TC 30 22.48 85.89 1 3 278
1891 NI BB 15:00:00 TS 22.50 85.64 0 0 _________PO___ -1 22.50 85.58 TC 30 22.50 85.70 1 2 273
1891 NI BB 18:00:00 TS 22.50 85.57 0 0 _________OP___ -1 22.50 85.50 TC 30 22.50 85.64 1 1 281
1891 NI BB 21:00:00 TS 22.52 85.53 0 0 _________PP___ -1 22.53 85.47 TC 30 22.51 85.60 1 2 294
1891 NI BB 1891-07-26 00:00:00 TS 22.57 85.40 0 0 _________OP___ -1 22.60 85.30 TC 30 22.54 85.51 1 5 289
1891 NI BB 03:00:00 TS 22.67 85.06 0 0 _________PO___ -1 22.74 84.82 TC 30 22.60 85.30 1 8 287
1891 NI BB 06:00:00 TS 22.81 84.53 0 0 _________OP___ -1 22.90 84.20 TC 30 22.72 84.87 1 10 287
1891 NI BB 09:00:00 TS 22.96 83.98 0 0 _________PP___ -1 23.06 83.64 TC 30 22.87 84.31 1 11 287
1891 NI BB 12:00:00 TS 23.12 83.40 0 0 _________OP___ -1 23.20 83.10 TC 30 23.04 83.70 1 11 285
1891 NI BB 15:00:00 TS 23.25 82.84 0 0 _________PO___ -1 23.30 82.58 TC 30 23.20 83.10 1 10 284
1891 NI BB 18:00:00 TS 23.37 82.35 0 0 _________OP___ -1 23.40 82.10 TC 30 23.33 82.59 1 9 286
1891 NI BB 21:00:00 TS 23.50 81.87 0 0 _________PP___ -1 23.55 81.64 TC 30 23.46 82.10 1 9 288
1891 NI BB 1891-07-27 00:00:00 TS 23.64 81.42 0 0 _________OP___ -1 23.70 81.20 TC 30 23.58 81.64 1 8 287
1891 NI BB 03:00:00 TS 23.75 81.00 0 0 _________PO___ -1 23.80 80.79 TC 30 23.70 81.20 1 8 286
1891 NI BB 06:00:00 TS 23.86 80.59 0 0 _________OP___ -1 23.90 80.40 TC 30 23.82 80.77 1 8 289
1891 NI BB 09:00:00 TS 24.00 80.18 0 0 _________PP___ -1 24.05 79.99 TC 30 23.95 80.37 1 8 291
1891 NI BB 12:00:00 TS 24.14 79.79 0 0 _________OP___ -1 24.20 79.60 TC 30 24.07 79.98 1 7 290
1891 NI BB 15:00:00 TS 24.25 79.42 0 0 _________PO___ -1 24.30 79.25 TC 30 24.20 79.60 1 7 289
1891 NI BB 18:00:00 TS 24.36 79.08 0 0 _________OP___ -1 24.40 78.90 TC 30 24.31 79.25 1 7 290
1891 NI BB 21:00:00 TS 24.48 78.72 0 0 _________PP___ -1 24.53 78.54 TC 30 24.43 78.91 1 7 291
1891 NI BB 1891-07-28 00:00:00 TS 24.63 78.32 0 0 _________OP___ -1 24.70 78.10 TC 30 24.55 78.53 1 9 291
1891 NI AS 03:00:00 TS 24.80 77.82 0 0 _________PO___ -1 24.89 77.53 TC 30 24.70 78.10 1 11 290
1891 NI AS 06:00:00 TS 24.99 77.23 0 0 _________OP___ -1 25.10 76.90 TC 30 24.88 77.56 1 11 290
1891 NI AS 09:00:00 TS 25.19 76.63 0 0 _________PP___ -1 25.30 76.30 TC 30 25.08 76.97 1 12 290
1891 NI AS 12:00:00 TS 25.39 76.02 0 0 _________OP___ -1 25.50 75.70 TC 30 25.29 76.34 1 12 290
1891 NI AS 15:00:00 TS 25.60 75.40 0 0 _________PO___ -1 25.70 75.10 TC 30 25.50 75.70 1 12 290
1891 NI AS 18:00:00 TS 25.80 74.79 0 0 _________OP___ -1 25.90 74.50 TC 30 25.70 75.08 1 12 290
1891 NI AS 21:00:00 TS 26.01 74.17 0 0 _________PP___ -1 26.11 73.88 TC 30 25.91 74.45 1 12 290
1891 NI AS 1891-07-29 00:00:00 TS 26.20 73.58 0 0 _________OP___ -1 26.30 73.30 TC 30 26.11 73.86 1 11 290
1891 NI AS 03:00:00 TS 26.37 73.06 0 0 _________PO___ -1 26.45 72.83 TC 30 26.30 73.30 1 9 291
1891 NI AS 06:00:00 TS 26.54 72.60 0 0 _________OP___ -1 26.60 72.40 TC 30 26.48 72.80 1 9 293
1891 NI AS 09:00:00 TS 26.72 72.15 0 0 _________PP___ -1 26.79 71.95 TC 30 26.65 72.35 1 9 295
1891 NI AS 12:00:00 TS 26.91 71.71 0 0 _________OP___ -1 27.00 71.50 TC 30 26.82 71.92 1 9 296
1891 NI AS 15:00:00 TS 27.10 71.27 0 0 _________PO___ -1 27.20 71.04 TC 30 27.00 71.50 1 8 296
1891 NI AS 18:00:00 TS 27.28 70.87 0 0 _________OP___ -1 27.40 70.60 TC 30 27.19 71.08 1 8 298
1891 NI AS 21:00:00 TS 27.47 70.47 0 0 _________PP___ -1 27.60 70.19 TC 30 27.39 70.66 1 8 299
1891 NI AS 1891-07-30 00:00:00 TS 27.66 70.09 0 0 _________OP___ -1 27.80 69.80 TC 30 27.59 70.23 1 7 299
1891 NI AS 03:00:00 NR 27.80 69.80 0 __________O___ -1 TC 27.80 69.80 1 6 299